createdAt,value
2022-10-31T00:01:09.861Z,100.00
2022-10-31T00:03:36.384Z,100.00
2022-10-31T00:06:02.997Z,100.00
2022-10-31T00:08:29.662Z,100.00
2022-10-31T00:10:56.280Z,100.00
2022-10-31T00:15:54.338Z,100.00
2022-10-31T00:18:20.899Z,100.00
2022-10-31T00:20:47.428Z,100.00
2022-10-31T00:23:15.140Z,100.00
2022-10-31T00:25:41.769Z,100.00
2022-10-31T00:28:12.017Z,100.00
2022-10-31T00:30:38.710Z,100.00
2022-10-31T00:33:06.245Z,100.00
2022-10-31T00:35:33.254Z,100.00
2022-10-31T00:38:00.404Z,100.00
2022-10-31T00:40:27.550Z,100.00
2022-10-31T00:42:54.234Z,100.00
2022-10-31T00:45:21.019Z,100.00
2022-10-31T00:47:47.922Z,100.00
2022-10-31T00:50:14.809Z,100.00
2022-10-31T00:52:41.385Z,100.00
2022-10-31T00:55:08.083Z,100.00
2022-10-31T00:57:34.632Z,100.00
2022-10-31T01:00:05.081Z,100.00
2022-10-31T01:02:31.756Z,100.00
2022-10-31T01:04:58.414Z,100.00
2022-10-31T01:07:24.928Z,100.00
2022-10-31T01:09:51.798Z,100.00
2022-10-31T01:12:19.735Z,100.00
2022-10-31T01:14:46.732Z,100.00
2022-10-31T01:17:14.480Z,100.00
2022-10-31T01:19:41.145Z,100.00
2022-10-31T01:22:07.793Z,100.00
2022-10-31T01:24:34.816Z,100.00
2022-10-31T01:27:02.404Z,100.00
2022-10-31T01:29:32.154Z,100.00
2022-10-31T01:31:59.021Z,100.00
2022-10-31T01:34:25.609Z,100.00
2022-10-31T01:36:52.368Z,100.00
2022-10-31T01:39:20.268Z,100.00
2022-10-31T01:41:50.058Z,100.00
2022-10-31T01:44:16.714Z,100.00
2022-10-31T01:46:54.824Z,100.00
2022-10-31T01:49:52.376Z,100.00
2022-10-31T01:52:27.486Z,100.00
2022-10-31T01:55:08.979Z,100.00
2022-10-31T01:57:38.730Z,100.00
2022-10-31T02:00:10.403Z,100.00
2022-10-31T02:02:40.199Z,100.00
2022-10-31T02:05:10.633Z,100.00
2022-10-31T02:07:43.184Z,100.00
2022-10-31T02:10:09.865Z,100.00
2022-10-31T02:12:39.247Z,100.00
2022-10-31T02:15:06.879Z,100.00
2022-10-31T02:17:34.148Z,100.00
2022-10-31T02:20:19.860Z,100.00
2022-10-31T02:22:58.721Z,100.00
2022-10-31T02:26:06.140Z,100.00
2022-10-31T02:28:51.655Z,100.00
2022-10-31T02:31:26.092Z,100.00
2022-10-31T02:34:29.890Z,100.00
2022-10-31T02:37:08.992Z,100.00
2022-10-31T02:39:46.417Z,100.00
2022-10-31T02:43:07.106Z,100.00
2022-10-31T02:45:38.911Z,100.00
2022-10-31T02:48:15.825Z,100.00
2022-10-31T02:50:47.530Z,100.00
2022-10-31T02:53:17.268Z,100.00
2022-10-31T02:55:47.674Z,100.00
2022-10-31T03:00:52.364Z,100.00
2022-10-31T03:03:40.823Z,100.00
2022-10-31T03:06:15.478Z,100.00
2022-10-31T03:08:56.086Z,100.00
2022-10-31T03:11:30.366Z,100.00
2022-10-31T03:14:12.271Z,100.00
2022-10-31T03:16:50.803Z,100.00
2022-10-31T03:19:40.631Z,100.00
2022-10-31T03:22:26.722Z,100.00
2022-10-31T03:24:55.849Z,100.00
2022-10-31T03:27:26.831Z,100.00
2022-10-31T03:29:58.097Z,100.00
2022-10-31T03:32:39.323Z,100.00
2022-10-31T03:35:09.994Z,100.00
2022-10-31T03:37:40.795Z,100.00
2022-10-31T03:40:13.681Z,100.00
2022-10-31T03:42:45.219Z,100.00
2022-10-31T03:45:17.776Z,100.00
2022-10-31T03:47:45.228Z,100.00
2022-10-31T03:50:16.566Z,100.00
2022-10-31T03:52:58.125Z,100.00
2022-10-31T03:55:33.765Z,100.00
2022-10-31T03:58:09.079Z,100.00
2022-10-31T04:00:39.805Z,100.00
2022-10-31T04:03:11.358Z,100.00
2022-10-31T04:05:43.660Z,100.00
2022-10-31T04:08:15.972Z,100.00
2022-10-31T04:10:47.986Z,100.00
2022-10-31T04:13:21.570Z,100.00
2022-10-31T04:15:57.443Z,100.00
2022-10-31T04:18:26.811Z,100.00
2022-10-31T04:21:06.911Z,100.00
2022-10-31T04:23:35.280Z,100.00
2022-10-31T04:26:12.672Z,100.00
2022-10-31T04:28:39.274Z,100.00
2022-10-31T04:31:06.094Z,100.00
2022-10-31T04:33:36.408Z,100.00
2022-10-31T04:36:03.297Z,100.00
2022-10-31T04:38:30.241Z,100.00
2022-10-31T04:40:56.891Z,100.00
2022-10-31T04:43:46.594Z,100.00
2022-10-31T04:46:13.951Z,100.00
2022-10-31T04:48:40.613Z,100.00
2022-10-31T04:51:07.922Z,100.00
2022-10-31T04:53:34.605Z,100.00
2022-10-31T04:56:30.609Z,100.00
2022-10-31T04:59:00.118Z,100.00
2022-10-31T05:01:29.943Z,100.00
2022-10-31T05:03:58.730Z,100.00
2022-10-31T05:06:25.305Z,100.00
2022-10-31T05:08:52.008Z,100.00
2022-10-31T05:11:18.568Z,100.00
2022-10-31T05:13:45.306Z,100.00
2022-10-31T05:16:11.874Z,100.00
2022-10-31T05:19:16.903Z,100.00
2022-10-31T05:22:02.115Z,100.00
2022-10-31T05:24:29.446Z,100.00
2022-10-31T05:26:56.015Z,100.00
2022-10-31T05:29:22.831Z,100.00
2022-10-31T05:31:49.438Z,100.00
2022-10-31T05:34:35.958Z,100.00
2022-10-31T05:37:21.192Z,100.00
2022-10-31T05:39:47.865Z,100.00
2022-10-31T05:42:16.970Z,100.00
2022-10-31T05:44:43.609Z,100.00
2022-10-31T05:47:10.174Z,100.00
2022-10-31T05:49:55.538Z,100.00
2022-10-31T05:52:40.862Z,100.00
2022-10-31T05:55:17.686Z,100.00
2022-10-31T05:57:59.511Z,100.00
2022-10-31T06:00:27.623Z,100.00
2022-10-31T06:03:05.814Z,100.00
2022-10-31T06:05:41.894Z,100.00
2022-10-31T06:08:08.592Z,100.00
2022-10-31T06:10:36.043Z,100.00
2022-10-31T06:13:02.660Z,100.00
2022-10-31T06:15:43.705Z,100.00
2022-10-31T06:18:11.422Z,100.00
2022-10-31T06:20:50.072Z,100.00
2022-10-31T06:23:16.841Z,100.00
2022-10-31T06:25:49.700Z,100.00
2022-10-31T06:28:17.014Z,100.00
2022-10-31T06:31:07.282Z,100.00
2022-10-31T06:33:34.899Z,100.00
2022-10-31T06:36:02.888Z,100.00
2022-10-31T06:38:30.037Z,100.00
2022-10-31T06:40:57.807Z,100.00
2022-10-31T06:43:27.844Z,100.00
2022-10-31T06:46:12.985Z,100.00
2022-10-31T06:49:02.448Z,100.00
2022-10-31T06:51:38.017Z,100.00
2022-10-31T06:54:04.813Z,100.00
2022-10-31T06:56:31.640Z,100.00
2022-10-31T06:58:59.214Z,100.00
2022-10-31T07:01:44.585Z,100.00
2022-10-31T07:04:12.437Z,100.00
2022-10-31T07:06:39.138Z,100.00
2022-10-31T07:09:05.884Z,100.00
2022-10-31T07:11:32.448Z,100.00
2022-10-31T07:13:59.550Z,100.00
2022-10-31T07:16:26.288Z,100.00
2022-10-31T07:18:53.517Z,100.00
2022-10-31T07:21:20.819Z,100.00
2022-10-31T07:23:50.842Z,100.00
2022-10-31T07:26:43.427Z,100.00
2022-10-31T07:29:10.852Z,100.00
2022-10-31T07:31:37.864Z,100.00
2022-10-31T07:34:11.735Z,100.00
2022-10-31T07:37:04.178Z,100.00
2022-10-31T07:39:30.767Z,100.00
2022-10-31T07:41:59.738Z,100.00
2022-10-31T07:44:26.929Z,100.00
2022-10-31T07:47:12.274Z,100.00
2022-10-31T07:50:05.381Z,100.00
2022-10-31T07:53:03.078Z,100.00
2022-10-31T07:55:48.033Z,100.00
2022-10-31T07:58:16.893Z,100.00
2022-10-31T08:00:45.915Z,100.00
2022-10-31T08:03:18.917Z,100.00
2022-10-31T08:06:04.658Z,100.00
2022-10-31T08:08:57.250Z,100.00
2022-10-31T08:11:26.248Z,100.00
2022-10-31T08:13:53.025Z,100.00
2022-10-31T08:16:20.159Z,100.00
2022-10-31T08:19:07.049Z,100.00
2022-10-31T08:21:38.196Z,100.00
2022-10-31T08:24:06.169Z,100.00
2022-10-31T08:26:33.666Z,100.00
2022-10-31T08:29:00.709Z,100.00
2022-10-31T08:31:44.332Z,100.00
2022-10-31T08:34:29.392Z,100.00
2022-10-31T08:37:19.638Z,100.00
2022-10-31T08:39:48.920Z,100.00
2022-10-31T08:42:15.570Z,100.00
2022-10-31T08:44:42.232Z,100.00
2022-10-31T08:47:08.958Z,100.00
2022-10-31T08:49:38.442Z,100.00
2022-10-31T08:52:05.131Z,100.00
2022-10-31T08:54:36.556Z,100.00
2022-10-31T08:57:21.961Z,100.00
2022-10-31T08:59:48.728Z,100.00
2022-10-31T09:02:24.503Z,100.00
2022-10-31T09:04:55.682Z,100.00
2022-10-31T09:07:22.323Z,100.00
2022-10-31T09:09:48.904Z,100.00
2022-10-31T09:12:15.486Z,100.00
2022-10-31T09:14:48.087Z,100.00
2022-10-31T09:17:23.712Z,100.00
2022-10-31T09:20:16.549Z,100.00
2022-10-31T09:22:47.717Z,100.00
2022-10-31T09:25:15.406Z,100.00
2022-10-31T09:28:39.944Z,100.00
2022-10-31T09:31:14.217Z,100.00
2022-10-31T09:33:49.596Z,100.00
2022-10-31T09:36:34.714Z,100.00
2022-10-31T09:39:03.688Z,100.00
2022-10-31T09:41:59.525Z,100.00
2022-10-31T09:44:36.658Z,100.00
2022-10-31T09:47:26.468Z,100.00
2022-10-31T09:50:19.866Z,99.52
2022-10-31T09:53:02.819Z,100.00
2022-10-31T09:55:39.903Z,100.00
2022-10-31T09:58:15.544Z,98.41
2022-10-31T10:00:44.403Z,100.00
2022-10-31T10:03:23.205Z,99.95
2022-10-31T10:06:25.430Z,100.00
2022-10-31T10:09:27.330Z,100.00
2022-10-31T10:12:49.414Z,100.00
2022-10-31T10:15:41.245Z,100.00
2022-10-31T10:18:10.858Z,100.00
2022-10-31T10:21:04.966Z,100.00
2022-10-31T10:24:03.992Z,100.00
2022-10-31T10:26:37.684Z,99.55
2022-10-31T10:29:28.175Z,99.30
2022-10-31T10:31:56.472Z,97.43
2022-10-31T10:34:48.648Z,97.95
2022-10-31T10:37:26.815Z,96.42
2022-10-31T10:40:02.209Z,98.13
2022-10-31T10:42:47.398Z,96.48
2022-10-31T10:45:37.976Z,96.68
2022-10-31T10:48:20.957Z,97.13
2022-10-31T10:50:51.362Z,95.37
2022-10-31T10:53:49.926Z,93.81
2022-10-31T10:56:35.958Z,93.38
2022-10-31T10:59:04.051Z,92.45
2022-10-31T11:01:30.901Z,92.51
2022-10-31T11:03:57.524Z,90.60
2022-10-31T11:06:28.439Z,90.09
2022-10-31T11:08:55.098Z,89.75
2022-10-31T11:11:28.869Z,89.15
2022-10-31T11:14:03.888Z,88.71
2022-10-31T11:16:36.784Z,89.03
2022-10-31T11:19:18.718Z,88.81
2022-10-31T11:21:52.628Z,89.38
2022-10-31T11:24:22.256Z,88.21
2022-10-31T11:26:50.485Z,86.74
2022-10-31T11:29:27.008Z,85.27
2022-10-31T11:31:56.928Z,85.88
2022-10-31T11:34:27.971Z,85.31
2022-10-31T11:36:55.471Z,85.10
2022-10-31T11:39:24.991Z,83.58
2022-10-31T11:41:53.070Z,82.50
2022-10-31T11:44:29.007Z,82.59
2022-10-31T11:46:59.758Z,82.39
2022-10-31T11:49:40.007Z,83.10
2022-10-31T11:52:13.570Z,82.80
2022-10-31T11:54:56.779Z,81.29
2022-10-31T11:57:29.355Z,81.75
2022-10-31T11:59:58.770Z,83.49
2022-10-31T12:02:25.414Z,82.40
2022-10-31T12:04:56.359Z,81.73
2022-10-31T12:07:24.275Z,81.48
2022-10-31T12:09:51.135Z,81.89
2022-10-31T12:12:39.496Z,80.46
2022-10-31T12:15:28.477Z,83.09
2022-10-31T12:18:32.713Z,82.39
2022-10-31T12:21:41.141Z,81.39
2022-10-31T12:24:29.741Z,82.35
2022-10-31T12:27:04.777Z,82.89
2022-10-31T12:29:43.241Z,80.75
2022-10-31T12:32:25.866Z,81.37
2022-10-31T12:34:52.366Z,80.02
2022-10-31T12:37:49.946Z,79.75
2022-10-31T12:40:25.840Z,79.49
2022-10-31T12:43:12.109Z,79.91
2022-10-31T12:45:54.182Z,79.23
2022-10-31T12:49:02.620Z,78.71
2022-10-31T12:51:45.663Z,81.36
2022-10-31T12:54:12.298Z,81.33
2022-10-31T12:56:42.516Z,80.81
2022-10-31T12:59:27.993Z,80.41
2022-10-31T13:02:11.708Z,80.05
2022-10-31T13:04:46.217Z,81.29
2022-10-31T13:07:23.306Z,81.00
2022-10-31T13:10:04.454Z,79.90
2022-10-31T13:12:41.058Z,79.85
2022-10-31T13:15:30.895Z,79.61
2022-10-31T13:18:02.117Z,80.28
2022-10-31T13:20:35.981Z,80.67
2022-10-31T13:23:51.872Z,82.19
2022-10-31T13:26:30.164Z,80.73
2022-10-31T13:29:32.663Z,80.42
2022-10-31T13:32:05.138Z,80.61
2022-10-31T13:34:39.561Z,82.59
2022-10-31T13:37:12.210Z,81.17
2022-10-31T13:40:05.673Z,80.74
2022-10-31T13:42:54.350Z,81.27
2022-10-31T13:45:23.440Z,82.28
2022-10-31T13:48:16.182Z,81.34
2022-10-31T13:50:55.708Z,81.26
2022-10-31T13:53:24.056Z,81.03
2022-10-31T13:56:03.854Z,80.45
2022-10-31T13:58:32.835Z,80.31
2022-10-31T14:01:21.685Z,79.70
2022-10-31T14:04:38.298Z,79.59
2022-10-31T14:07:26.388Z,79.69
2022-10-31T14:10:07.771Z,79.28
2022-10-31T14:12:47.593Z,78.66
2022-10-31T14:15:59.856Z,78.30
2022-10-31T14:19:07.620Z,77.53
2022-10-31T14:24:58.466Z,77.55
2022-10-31T14:28:00.707Z,78.11
2022-10-31T14:30:48.800Z,80.00
2022-10-31T14:33:21.221Z,79.07
2022-10-31T14:36:18.912Z,78.88
2022-10-31T14:39:53.083Z,78.72
2022-10-31T14:43:24.903Z,79.18
2022-10-31T14:46:10.775Z,80.06
2022-10-31T14:52:10.121Z,79.11
2022-10-31T14:54:42.475Z,79.69
2022-10-31T14:57:25.737Z,80.10
2022-10-31T15:00:09.062Z,80.61
2022-10-31T15:03:15.474Z,80.63
2022-10-31T15:06:17.827Z,81.73
2022-10-31T15:12:43.068Z,81.37
2022-10-31T15:15:59.434Z,80.00
2022-10-31T15:18:39.477Z,80.73
2022-10-31T15:21:36.093Z,80.39
2022-10-31T15:24:03.832Z,80.31
2022-10-31T15:26:41.547Z,80.34
2022-10-31T15:29:23.566Z,81.17
2022-10-31T15:35:26.706Z,81.22
2022-10-31T15:38:29.748Z,81.31
2022-10-31T15:45:15.482Z,80.86
2022-10-31T15:48:41.377Z,81.43
2022-10-31T15:51:30.223Z,81.55
2022-10-31T15:54:22.600Z,81.47
2022-10-31T16:00:02.323Z,80.55
2022-10-31T16:02:59.713Z,81.14
2022-10-31T16:09:24.461Z,81.73
2022-10-31T16:12:01.929Z,82.23
2022-10-31T16:20:09.687Z,82.66
2022-10-31T16:23:12.923Z,82.92
2022-10-31T16:25:46.546Z,83.04
2022-10-31T16:28:48.802Z,83.90
2022-10-31T16:32:14.885Z,83.97
2022-10-31T16:47:24.604Z,86.18
2022-10-31T16:58:27.739Z,87.30
2022-10-31T16:59:20.300Z,87.28
2022-10-31T17:08:33.582Z,87.46
2022-10-31T17:11:00.332Z,88.15
2022-10-31T17:13:30.248Z,87.72
2022-10-31T17:16:00.013Z,87.70
2022-10-31T17:18:31.334Z,88.22
2022-10-31T17:21:27.826Z,88.02
2022-10-31T17:23:56.731Z,87.61
2022-10-31T17:26:23.470Z,86.34
2022-10-31T17:28:49.982Z,86.08
2022-10-31T17:31:31.667Z,86.56
2022-10-31T17:34:02.304Z,86.81
2022-10-31T17:36:30.720Z,86.55
2022-10-31T17:38:57.550Z,87.81
2022-10-31T17:41:24.421Z,86.39
2022-10-31T17:43:56.045Z,87.02
2022-10-31T17:46:23.176Z,88.67
2022-10-31T17:48:50.064Z,87.79
2022-10-31T17:51:17.097Z,87.03
2022-10-31T17:53:43.753Z,86.14
2022-10-31T17:56:10.727Z,85.82
2022-10-31T17:58:38.249Z,86.86
2022-10-31T18:01:13.191Z,86.31
2022-10-31T18:03:40.575Z,86.51
2022-10-31T18:06:08.599Z,86.38
2022-10-31T18:08:37.598Z,86.53
2022-10-31T18:11:09.646Z,86.37
2022-10-31T18:13:37.161Z,85.77
2022-10-31T18:16:10.220Z,86.65
2022-10-31T18:18:37.036Z,87.55
2022-10-31T18:21:04.131Z,87.62
2022-10-31T18:23:31.222Z,87.88
2022-10-31T18:25:58.240Z,88.00
2022-10-31T18:28:25.277Z,87.35
2022-10-31T18:30:56.671Z,86.95
2022-10-31T18:36:23.133Z,87.92
2022-10-31T18:38:55.150Z,88.21
2022-10-31T18:41:29.422Z,88.17
2022-10-31T18:44:00.086Z,87.70
2022-10-31T18:46:37.041Z,89.68
2022-10-31T18:49:12.554Z,90.37
2022-10-31T18:52:00.683Z,90.09
2022-10-31T18:54:28.476Z,88.84
2022-10-31T18:57:01.409Z,89.44
2022-10-31T18:59:35.562Z,89.88
2022-10-31T19:02:16.583Z,88.91
2022-10-31T19:04:43.724Z,89.12
2022-10-31T19:07:10.312Z,90.34
2022-10-31T19:12:34.655Z,90.26
2022-10-31T19:15:19.238Z,89.49
2022-10-31T19:17:52.865Z,89.88
2022-10-31T19:20:25.933Z,89.62
2022-10-31T19:26:34.722Z,89.35
2022-10-31T19:29:07.432Z,88.53
2022-10-31T19:31:34.007Z,89.35
2022-10-31T19:34:00.633Z,89.72
2022-10-31T19:36:27.662Z,90.34
2022-10-31T19:38:54.265Z,91.12
2022-10-31T19:41:30.657Z,90.78
2022-10-31T19:43:59.680Z,90.13
2022-10-31T19:46:52.787Z,90.14
2022-10-31T19:49:13.330Z,89.56
2022-10-31T19:51:39.939Z,89.57
2022-10-31T19:54:07.772Z,90.20
2022-10-31T19:56:34.679Z,89.72
2022-10-31T19:59:02.655Z,88.97
2022-10-31T20:01:29.639Z,89.19
2022-10-31T20:03:56.225Z,89.33
2022-10-31T20:06:34.854Z,89.55
2022-10-31T20:09:03.858Z,88.36
2022-10-31T20:11:43.207Z,88.58
2022-10-31T20:14:14.950Z,89.08
2022-10-31T20:16:42.440Z,89.02
2022-10-31T20:19:09.492Z,88.19
2022-10-31T20:21:38.540Z,88.80
2022-10-31T20:24:07.932Z,89.02
2022-10-31T20:26:35.552Z,88.47
2022-10-31T20:29:03.241Z,88.26
2022-10-31T20:31:32.873Z,88.02
2022-10-31T20:33:59.909Z,88.92
2022-10-31T20:36:28.654Z,89.10
2022-10-31T20:38:55.553Z,89.21
2022-10-31T20:41:22.131Z,88.31
2022-10-31T20:43:48.976Z,89.31
2022-10-31T20:46:18.713Z,89.97
2022-10-31T20:48:45.935Z,89.78
2022-10-31T20:51:25.154Z,89.89
2022-10-31T20:53:53.303Z,89.55
2022-10-31T20:56:22.546Z,89.54
2022-10-31T20:58:50.078Z,90.00
2022-10-31T21:01:22.738Z,90.39
2022-10-31T21:03:50.702Z,90.65
2022-10-31T21:06:19.018Z,90.68
2022-10-31T21:08:46.066Z,90.52
2022-10-31T21:11:18.396Z,91.09
2022-10-31T21:13:47.067Z,91.94
2022-10-31T21:16:17.042Z,91.59
2022-10-31T21:18:45.046Z,91.44
2022-10-31T21:21:20.136Z,90.92
2022-10-31T21:26:52.146Z,92.31
2022-10-31T21:29:20.596Z,92.26
2022-10-31T21:31:48.130Z,93.16
2022-10-31T21:34:15.089Z,93.01
2022-10-31T21:36:41.817Z,93.18
2022-10-31T21:39:09.425Z,93.04
2022-10-31T21:41:36.235Z,92.16
2022-10-31T21:44:02.797Z,91.99
2022-10-31T21:46:31.970Z,91.44
2022-10-31T21:49:07.162Z,91.66
2022-10-31T21:51:36.323Z,92.59
2022-10-31T21:54:22.064Z,92.12
2022-10-31T21:56:49.368Z,91.63
2022-10-31T21:59:16.063Z,91.47
2022-10-31T22:01:42.820Z,91.61
2022-10-31T22:04:09.798Z,91.97
2022-10-31T22:06:37.150Z,91.14
2022-10-31T22:09:06.185Z,91.79
2022-10-31T22:11:34.349Z,91.50
2022-10-31T22:14:01.918Z,91.00
2022-10-31T22:16:30.540Z,91.80
2022-10-31T22:18:59.899Z,91.53
2022-10-31T22:21:28.029Z,92.30
2022-10-31T22:24:02.043Z,92.75
2022-10-31T22:26:33.799Z,92.00
2022-10-31T22:29:03.036Z,90.99
2022-10-31T22:31:30.978Z,91.69
2022-10-31T22:33:58.528Z,91.51
2022-10-31T22:36:27.597Z,91.46
2022-10-31T22:38:54.346Z,91.82
2022-10-31T22:41:29.403Z,92.48
2022-10-31T22:43:57.194Z,92.30
2022-10-31T22:46:29.667Z,91.95
2022-10-31T22:49:02.230Z,91.79
2022-10-31T22:51:31.982Z,92.12
2022-10-31T22:53:59.092Z,92.75
2022-10-31T22:56:28.717Z,91.58
2022-10-31T22:58:55.233Z,91.40
2022-10-31T23:01:24.232Z,91.25
2022-10-31T23:03:51.219Z,91.42
2022-10-31T23:06:20.428Z,92.57
2022-10-31T23:08:47.682Z,91.71
2022-10-31T23:11:18.564Z,91.70
2022-10-31T23:14:05.240Z,91.72
2022-10-31T23:16:32.465Z,90.65
2022-10-31T23:18:59.296Z,90.91
2022-10-31T23:21:43.764Z,91.53
2022-10-31T23:24:13.491Z,92.07
2022-10-31T23:26:58.657Z,91.21
2022-10-31T23:29:25.269Z,90.72
2022-10-31T23:31:54.533Z,90.50
2022-10-31T23:34:24.093Z,91.59
2022-10-31T23:36:50.697Z,92.01
2022-10-31T23:39:19.997Z,91.80
2022-10-31T23:41:49.425Z,91.79
2022-10-31T23:44:15.918Z,92.15
2022-10-31T23:46:42.562Z,92.18
2022-10-31T23:49:09.258Z,91.97
2022-10-31T23:51:35.907Z,92.57
2022-10-31T23:54:02.582Z,92.00
2022-10-31T23:56:29.147Z,92.33
2022-10-31T23:58:55.775Z,92.82
